Time;durP1;ratioP1;P1;durP2;ratioP2;P2;SDS_P1;SDS_P2;PMS_P1;PMS_P2;Temp;Humidity;BMP_temperature;BMP_pressure;BME280_temperature;BME280_humidity;BME280_pressure;Samples;Min_cycle;Max_cycle;Signal;HPM_P1;HPM_P2
2021/12/18 07:04:56;;;;;;;62.20;26.37;;;;;;;-0.14;100.00;97426.47;5976262;23;20213;-88
2021/12/18 07:07:21;;;;;;;52.00;22.67;;;;;;;-0.12;100.00;97427.25;5955353;24;20174;-84
2021/12/18 08:34:13;;;;;;;52.00;16.93;;;;;;;-0.31;99.74;97446.44;5974230;23;20261;-87
2021/12/18 08:43:42;;;;;;;43.40;15.73;;;;;;;-0.41;99.22;97448.38;5980915;24;20172;-86
2021/12/18 08:46:08;;;;;;;34.70;15.10;;;;;;;-0.31;99.73;97444.72;5936353;24;20189;-81
2021/12/18 08:48:33;;;;;;;66.43;15.57;;;;;;;-0.33;99.26;97438.81;5982898;24;20162;-87
2021/12/18 08:50:58;;;;;;;64.70;17.60;;;;;;;-0.33;99.26;97430.31;5936199;24;20170;-85
2021/12/18 08:53:24;;;;;;;30.87;15.80;;;;;;;-0.42;99.12;97436.47;5934904;24;20543;-82
2021/12/18 08:55:55;;;;;;;50.03;17.47;;;;;;;-0.39;99.35;97436.41;5981989;24;20182;-85
2021/12/18 08:58:20;;;;;;;32.10;16.00;;;;;;;-0.28;99.29;97433.59;5917925;24;20172;-85
2021/12/18 09:00:45;;;;;;;102.23;20.07;;;;;;;-0.40;99.42;97429.63;5912266;24;20202;-86
2021/12/18 09:03:11;;;;;;;63.47;19.00;;;;;;;-0.34;99.16;97426.94;5907501;24;20173;-86
2021/12/18 09:05:36;;;;;;;81.50;18.73;;;;;;;-0.28;99.17;97428.47;5931559;24;20193;-87
2021/12/18 09:08:01;;;;;;;30.87;17.47;;;;;;;-0.18;99.34;97434.22;5908117;24;20171;-87
2021/12/18 09:10:27;;;;;;;34.07;18.20;;;;;;;-0.26;99.51;97424.22;5920453;24;20162;-86
2021/12/18 09:12:53;;;;;;;40.90;17.03;;;;;;;-0.22;99.17;97427.50;5935485;24;20194;-87
2021/12/18 09:15:22;;;;;;;36.57;19.07;;;;;;;-0.14;99.13;97435.84;5982037;23;20182;-88
2021/12/18 09:17:47;;;;;;;32.37;18.13;;;;;;;-0.11;98.87;97430.66;5937117;24;20246;-87
2021/12/18 09:20:13;;;;;;;41.03;18.50;;;;;;;-0.02;98.94;97427.88;5930576;24;20215;-86
2021/12/18 09:23:01;;;;;;;41.93;20.43;;;;;;;-0.12;98.82;97426.41;5953051;24;20179;-89
2021/12/18 09:25:27;;;;;;;34.07;18.87;;;;;;;0.07;99.28;97429.34;5953552;24;20206;-86
2021/12/18 09:27:56;;;;;;;37.43;19.20;;;;;;;0.02;98.50;97426.94;5930040;24;20657;-88
2021/12/18 09:30:22;;;;;;;36.63;18.50;;;;;;;0.12;98.32;97433.50;5953643;24;20524;-86
2021/12/18 09:32:47;;;;;;;43.17;18.13;;;;;;;0.12;98.72;97433.50;5951502;24;20511;-87
2021/12/18 09:35:13;;;;;;;42.00;17.93;;;;;;;0.22;97.70;97440.03;5929452;24;20183;-86
2021/12/18 09:37:39;;;;;;;30.60;17.70;;;;;;;0.21;97.36;97440.91;5954240;24;20175;-88
2021/12/18 09:40:05;;;;;;;33.50;17.67;;;;;;;0.23;97.56;97433.22;5954542;24;20194;-88
2021/12/18 09:42:33;;;;;;;38.40;17.77;;;;;;;0.24;97.66;97435.72;5952638;24;20170;-85
2021/12/18 09:45:02;;;;;;;35.00;17.43;;;;;;;0.23;97.03;97439.16;5954018;24;20183;-87
2021/12/18 09:47:28;;;;;;;40.83;19.87;;;;;;;0.20;97.05;97440.97;5953746;23;20167;-86
2021/12/18 09:49:54;;;;;;;34.80;19.27;;;;;;;0.28;97.93;97432.22;5952986;24;20194;-86
2021/12/18 09:52:19;;;;;;;36.53;20.10;;;;;;;0.26;97.04;97436.50;5929389;24;20167;-86
2021/12/18 09:54:45;;;;;;;36.73;17.77;;;;;;;0.35;96.38;97430.34;5953189;24;20183;-85
2021/12/18 09:57:10;;;;;;;30.97;18.13;;;;;;;0.24;97.18;97422.09;5955030;24;20188;-86
2021/12/18 09:59:36;;;;;;;32.30;17.97;;;;;;;0.40;96.80;97431.06;5955809;23;20167;-88
2021/12/18 10:02:02;;;;;;;29.80;16.97;;;;;;;0.45;96.90;97420.75;5960243;24;20190;-87
2021/12/18 10:04:32;;;;;;;30.13;16.70;;;;;;;0.43;95.43;97413.09;5930489;23;20651;-89
2021/12/18 10:06:59;;;;;;;29.73;15.50;;;;;;;0.46;95.75;97422.41;5952776;24;20163;-89
2021/12/18 10:09:24;;;;;;;24.13;14.03;;;;;;;0.40;96.51;97420.84;5953767;24;20175;-87
2021/12/18 10:11:51;;;;;;;32.93;15.50;;;;;;;0.17;96.30;97415.47;5976278;24;20163;-88
2021/12/18 10:14:18;;;;;;;24.43;14.50;;;;;;;0.38;96.34;97409.00;5953635;24;20237;-88
2021/12/18 10:16:53;;;;;;;24.13;15.17;;;;;;;0.44;96.61;97408.81;5931123;24;20257;-87
2021/12/18 10:19:23;;;;;;;32.07;15.33;;;;;;;0.51;95.90;97410.31;5955430;24;20182;-86
2021/12/18 10:22:05;;;;;;;27.23;16.00;;;;;;;0.59;95.15;97403.28;5954731;24;20262;-86
2021/12/18 10:24:32;;;;;;;32.00;16.57;;;;;;;0.57;95.57;97389.72;5951957;24;20191;-86
2021/12/18 10:27:00;;;;;;;28.37;16.20;;;;;;;0.51;95.39;97384.75;5952968;24;20170;-88
2021/12/18 10:29:34;;;;;;;29.23;16.07;;;;;;;0.47;95.71;97393.41;5952825;24;20163;-87
2021/12/18 10:32:15;;;;;;;27.60;15.97;;;;;;;0.58;96.12;97396.50;5951180;24;20183;-88
2021/12/18 10:34:42;;;;;;;29.67;15.83;;;;;;;0.67;95.89;97396.25;5951818;24;20191;-88
2021/12/18 10:37:16;;;;;;;28.50;15.90;;;;;;;0.69;95.82;97388.53;5928985;24;20642;-87
2021/12/18 10:39:44;;;;;;;28.40;16.30;;;;;;;0.62;95.57;97387.91;5929352;24;20164;-88
2021/12/18 10:42:36;;;;;;;32.17;15.17;;;;;;;0.70;95.68;97385.09;5928113;23;20242;-87
2021/12/18 10:45:20;;;;;;;28.00;15.20;;;;;;;0.78;95.68;97376.31;5951327;24;20665;-88
2021/12/18 10:48:04;;;;;;;25.20;14.30;;;;;;;0.74;95.04;97367.09;5951420;24;20469;-86
2021/12/18 10:50:39;;;;;;;25.93;14.20;;;;;;;0.76;95.14;97369.59;5974260;24;20163;-88
2021/12/18 10:53:29;;;;;;;28.20;13.87;;;;;;;0.89;94.55;97370.09;5951354;24;20159;-88
2021/12/18 10:56:00;;;;;;;29.23;14.17;;;;;;;0.84;94.29;97377.88;5952796;24;20179;-85
2021/12/18 10:58:37;;;;;;;27.53;13.37;;;;;;;0.60;94.39;97374.28;5952091;23;20167;-88
2021/12/18 11:01:03;;;;;;;23.50;14.00;;;;;;;0.73;95.10;97373.09;5950603;24;20502;-86
2021/12/18 11:03:35;;;;;;;26.87;14.43;;;;;;;0.75;94.62;97368.75;5949648;24;20227;-87
2021/12/18 11:06:02;;;;;;;45.90;15.90;;;;;;;0.49;94.61;97371.19;5972759;23;20228;-88
2021/12/18 11:08:27;;;;;;;25.60;14.07;;;;;;;0.58;95.86;97373.50;5951866;24;20168;-86
2021/12/18 11:13:38;;;;;;;26.00;15.30;;;;;;;0.56;96.38;97372.72;5928333;24;20179;-88
2021/12/18 11:13:48;;;;;;;30.47;14.10;;;;;;;0.63;95.38;97358.88;5951392;24;20570;-87
2021/12/18 11:16:13;;;;;;;25.87;14.33;;;;;;;0.65;95.74;97357.13;5951788;24;20244;-87
2021/12/18 11:18:39;;;;;;;27.70;15.37;;;;;;;0.70;95.72;97347.56;5928216;24;20175;-86
2021/12/18 11:21:04;;;;;;;27.50;15.27;;;;;;;0.61;95.69;97342.72;5951484;24;20575;-88
2021/12/18 11:23:51;;;;;;;26.93;14.90;;;;;;;0.77;95.74;97343.13;5929012;24;20247;-86
2021/12/18 11:26:17;;;;;;;25.33;15.10;;;;;;;0.93;95.19;97338.41;5951521;24;20183;-87
2021/12/18 11:28:46;;;;;;;31.23;15.03;;;;;;;0.99;95.23;97335.69;5951680;24;20227;-89
2021/12/18 11:31:12;;;;;;;32.77;17.57;;;;;;;0.94;94.96;97333.25;5950960;24;20168;-88
2021/12/18 11:33:38;;;;;;;30.53;16.33;;;;;;;0.96;95.19;97330.63;5929534;24;20166;-87
2021/12/18 11:36:05;;;;;;;25.30;14.13;;;;;;;1.05;94.45;97326.06;5929789;24;20501;-87
2021/12/18 11:38:34;;;;;;;27.90;14.63;;;;;;;1.03;94.01;97319.34;5951573;24;20210;-87
2021/12/18 11:41:00;;;;;;;27.30;16.17;;;;;;;1.04;94.37;97308.22;5951930;24;20187;-87
2021/12/18 11:43:41;;;;;;;29.50;16.80;;;;;;;1.04;94.71;97305.66;5929110;24;20506;-88
2021/12/18 11:46:37;;;;;;;28.10;17.00;;;;;;;1.07;94.64;97305.59;5929735;24;20211;-87
2021/12/18 11:49:10;;;;;;;30.60;15.77;;;;;;;1.14;94.43;97305.31;5951635;24;20168;-86
2021/12/18 11:51:36;;;;;;;27.87;15.13;;;;;;;1.23;93.86;97304.22;5930071;24;20186;-88
2021/12/18 11:54:03;;;;;;;30.07;16.23;;;;;;;1.18;93.99;97306.09;5955030;24;20187;-86
2021/12/18 11:56:46;;;;;;;29.57;16.63;;;;;;;1.15;93.79;97306.19;5931276;24;20249;-86
2021/12/18 11:59:12;;;;;;;28.90;16.20;;;;;;;1.09;93.40;97301.25;5953790;24;20531;-87
2021/12/18 12:01:46;;;;;;;28.20;15.40;;;;;;;1.17;94.00;97299.31;5950567;24;20214;-88
2021/12/18 12:04:12;;;;;;;27.17;15.90;;;;;;;1.25;93.38;97299.06;5926908;24;20152;-86
2021/12/18 12:06:42;;;;;;;26.13;14.53;;;;;;;1.29;93.10;97296.34;5927983;24;20251;-86
2021/12/18 12:09:27;;;;;;;26.87;15.10;;;;;;;1.30;93.47;97292.91;5928031;24;20168;-86
2021/12/18 12:12:04;;;;;;;24.83;14.33;;;;;;;1.18;93.16;97295.03;5951525;24;20149;-86
2021/12/18 12:14:31;;;;;;;25.47;13.63;;;;;;;1.20;92.49;97293.25;5950960;24;20186;-87
2021/12/18 12:17:10;;;;;;;25.60;14.47;;;;;;;1.00;93.14;97286.19;5951667;24;20164;-88
2021/12/18 12:19:35;;;;;;;28.00;16.37;;;;;;;1.11;92.69;97277.28;5976263;23;20167;-88
2021/12/18 12:22:03;;;;;;;28.87;16.77;;;;;;;1.07;93.44;97274.88;5976418;23;20510;-86
2021/12/18 12:24:31;;;;;;;26.43;15.20;;;;;;;1.21;94.11;97280.41;5954101;24;20192;-85
2021/12/18 12:27:31;;;;;;;28.33;15.33;;;;;;;1.17;93.80;97283.13;5930928;24;20251;-86
2021/12/18 12:29:58;;;;;;;30.40;15.07;;;;;;;1.13;94.03;97274.69;5953057;24;20167;-86
2021/12/18 12:32:24;;;;;;;30.27;16.63;;;;;;;1.33;92.88;97274.91;5952706;24;20176;-86
2021/12/18 12:35:04;;;;;;;27.13;15.40;;;;;;;1.32;92.31;97272.38;5930246;24;20246;-87
2021/12/18 12:37:38;;;;;;;30.87;17.60;;;;;;;1.38;92.01;97265.34;5953979;24;20164;-87
2021/12/18 12:40:08;;;;;;;32.43;16.40;;;;;;;1.24;91.58;97264.97;5950604;24;20160;-87
2021/12/18 12:42:34;;;;;;;24.47;15.20;;;;;;;1.20;92.13;97262.53;5950057;24;20610;-87
2021/12/18 12:45:16;;;;;;;27.03;15.13;;;;;;;1.13;92.45;97261.88;5927026;23;20237;-87
2021/12/18 12:47:54;;;;;;;27.30;16.37;;;;;;;1.17;92.01;97267.75;5950444;24;20163;-87
2021/12/18 12:50:19;;;;;;;24.30;14.63;;;;;;;1.06;92.47;97265.50;5951058;24;20158;-87
2021/12/18 12:52:55;;;;;;;27.90;15.83;;;;;;;1.12;92.41;97265.34;5972576;23;20624;-88
2021/12/18 12:55:22;;;;;;;30.13;17.50;;;;;;;1.29;92.65;97268.19;5973244;23;20194;-88
2021/12/18 12:57:56;;;;;;;27.80;16.80;;;;;;;1.34;92.28;97260.38;5927633;24;20496;-87
2021/12/18 13:00:31;;;;;;;38.67;20.40;;;;;;;1.34;92.30;97257.81;5950728;24;20512;-86
2021/12/18 13:03:18;;;;;;;51.40;28.60;;;;;;;1.44;92.33;97254.06;5949894;24;20180;-88
2021/12/18 13:05:55;;;;;;;42.03;24.47;;;;;;;1.42;90.61;97248.16;5950778;24;20184;-87
2021/12/18 13:08:21;;;;;;;34.83;21.17;;;;;;;1.49;91.50;97254.75;5978409;24;20156;-89
2021/12/18 13:10:49;;;;;;;34.27;19.30;;;;;;;1.60;90.97;97251.84;5957829;24;20199;-89
2021/12/18 13:13:20;;;;;;;49.93;29.70;;;;;;;1.55;90.88;97252.00;5958168;24;20164;-87
2021/12/18 13:16:10;;;;;;;28.00;18.00;;;;;;;1.64;91.07;97255.97;5931167;24;20188;-89
2021/12/18 13:18:38;;;;;;;36.57;20.23;;;;;;;1.26;91.09;97252.13;5957107;24;20501;-88
2021/12/18 13:21:14;;;;;;;32.07;17.93;;;;;;;1.30;91.93;97249.38;5954190;24;20197;-88
2021/12/18 13:24:05;;;;;;;29.47;17.20;;;;;;;1.18;91.67;97256.63;5980034;23;20171;-88
2021/12/18 13:26:35;;;;;;;27.50;15.93;;;;;;;1.12;92.31;97255.94;5953621;24;20191;-87
2021/12/18 13:29:06;;;;;;;28.10;15.83;;;;;;;1.05;92.41;97258.72;5953871;24;20232;-88
2021/12/18 13:31:34;;;;;;;26.17;15.87;;;;;;;1.19;91.79;97246.34;5953091;24;20176;-87
2021/12/18 13:34:08;;;;;;;27.30;16.67;;;;;;;1.17;92.01;97250.69;5955657;24;20187;-88
2021/12/18 13:36:43;;;;;;;28.17;16.37;;;;;;;1.16;92.54;97246.44;5955343;24;20160;-86
2021/12/18 13:39:15;;;;;;;26.93;15.27;;;;;;;1.17;91.46;97248.13;5954074;24;20152;-87
2021/12/18 13:42:09;;;;;;;28.53;17.77;;;;;;;1.04;91.45;97242.53;5953673;24;20614;-88
2021/12/18 13:44:39;;;;;;;28.03;15.60;;;;;;;1.15;91.83;97242.22;5950528;23;20192;-87
2021/12/18 13:47:34;;;;;;;26.23;16.43;;;;;;;1.03;91.99;97235.75;5954628;24;20167;-87
2021/12/18 13:50:07;;;;;;;26.53;16.47;;;;;;;1.02;91.78;97231.53;5974753;23;20657;-87
2021/12/18 13:52:39;;;;;;;25.30;15.03;;;;;;;1.03;92.76;97229.81;5975227;24;20200;-87
2021/12/18 13:55:23;;;;;;;24.87;15.00;;;;;;;1.10;92.09;97226.16;5976016;23;20525;-87
2021/12/18 13:58:18;;;;;;;23.77;15.20;;;;;;;1.20;91.90;97231.81;5976249;23;20243;-87
2021/12/18 14:01:13;;;;;;;25.13;14.23;;;;;;;1.27;92.18;97223.91;5953813;24;20187;-86
2021/12/18 14:03:58;;;;;;;26.13;15.60;;;;;;;0.97;92.13;97215.50;5975248;23;20254;-88
2021/12/18 14:06:33;;;;;;;28.57;15.67;;;;;;;0.96;92.01;97215.53;5953242;24;20637;-87
2021/12/18 14:09:18;;;;;;;28.10;17.03;;;;;;;0.96;92.79;97226.59;5956384;24;20152;-88
2021/12/18 14:11:55;;;;;;;28.77;16.20;;;;;;;0.97;93.05;97224.88;5954192;24;20167;-87
2021/12/18 14:14:38;;;;;;;28.33;15.40;;;;;;;1.03;92.29;97232.34;5952098;24;20288;-88
2021/12/18 14:17:06;;;;;;;30.60;16.20;;;;;;;1.01;92.26;97234.13;5930363;24;20226;-88
2021/12/18 14:19:37;;;;;;;29.07;17.30;;;;;;;1.08;92.46;97233.06;5951690;24;20497;-89
2021/12/18 14:22:06;;;;;;;26.00;15.17;;;;;;;1.00;92.89;97232.47;5928437;24;20204;-87
2021/12/18 14:24:32;;;;;;;27.97;15.83;;;;;;;0.96;93.17;97220.63;5951604;24;20242;-86
2021/12/18 14:26:57;;;;;;;30.17;17.23;;;;;;;0.94;92.86;97219.84;5958211;24;20237;-87
2021/12/18 14:29:23;;;;;;;25.67;16.07;;;;;;;0.93;92.46;97225.88;5981269;23;20167;-86
2021/12/18 14:31:55;;;;;;;28.30;17.03;;;;;;;0.92;92.19;97229.31;5955403;24;20180;-87
2021/12/18 14:34:25;;;;;;;34.03;20.07;;;;;;;0.84;92.13;97232.94;5955700;24;20184;-85
2021/12/18 14:36:57;;;;;;;25.87;15.47;;;;;;;0.89;92.70;97226.84;5958267;24;20167;-87
2021/12/18 14:39:29;;;;;;;53.20;27.80;;;;;;;0.74;93.79;97230.72;5956216;24;20219;-86
2021/12/18 14:42:01;;;;;;;34.93;20.33;;;;;;;0.72;93.68;97230.78;5979171;24;20207;-87
2021/12/18 14:44:30;;;;;;;34.60;20.40;;;;;;;0.81;93.12;97227.94;5957025;24;20191;-87
2021/12/18 14:47:14;;;;;;;32.97;19.10;;;;;;;0.78;93.10;97235.66;5936390;23;20160;-85
2021/12/18 14:50:05;;;;;;;31.10;18.30;;;;;;;0.55;93.34;97227.88;5958859;24;20159;-87
2021/12/18 14:52:31;;;;;;;29.13;17.13;;;;;;;0.60;93.70;97231.13;5974802;24;20633;-85
2021/12/18 14:54:58;;;;;;;26.20;16.33;;;;;;;0.51;93.38;97226.28;5928060;24;20263;-85
2021/12/18 14:57:27;;;;;;;25.83;15.77;;;;;;;0.54;93.93;97221.94;5952542;24;20160;-85
2021/12/18 15:00:15;;;;;;;27.17;16.50;;;;;;;0.56;94.09;97224.44;5952458;24;20167;-85
2021/12/18 15:03:02;;;;;;;28.67;16.50;;;;;;;0.49;93.98;97233.16;5951576;24;20235;-84
2021/12/18 15:05:40;;;;;;;31.50;18.53;;;;;;;0.43;94.26;97235.88;5973580;23;20270;-86
2021/12/18 15:08:07;;;;;;;29.50;17.80;;;;;;;0.46;94.55;97238.38;5949770;24;20145;-85
2021/12/18 15:10:55;;;;;;;32.03;18.83;;;;;;;0.40;94.96;97224.03;5949951;24;20164;-86
2021/12/18 15:13:24;;;;;;;28.37;17.97;;;;;;;0.38;95.26;97230.94;5949773;24;20174;-85
2021/12/18 15:16:32;;;;;;;30.70;18.07;;;;;;;0.34;94.80;97233.59;5950322;24;20210;-84
2021/12/18 15:19:03;;;;;;;26.10;16.13;;;;;;;0.40;94.94;97230.88;5925365;23;20618;-84
2021/12/18 15:21:30;;;;;;;32.27;18.90;;;;;;;0.36;94.77;97236.97;5947293;23;20187;-85
2021/12/18 15:23:56;;;;;;;32.67;19.70;;;;;;;0.24;95.39;97218.53;5949064;23;20203;-86
2021/12/18 15:26:22;;;;;;;38.20;23.53;;;;;;;0.21;95.52;97222.91;5950568;23;20187;-84
2021/12/18 15:28:47;;;;;;;35.23;22.60;;;;;;;0.02;96.14;97222.59;5948607;23;20165;-84
2021/12/18 15:31:14;;;;;;;39.27;21.93;;;;;;;-0.05;96.78;97231.28;5924505;23;20497;-85
2021/12/18 15:33:41;;;;;;;30.43;17.77;;;;;;;0.06;96.70;97216.50;5925856;23;20182;-86
2021/12/18 15:36:07;;;;;;;33.53;19.13;;;;;;;-0.01;96.34;97227.75;5925374;23;20250;-85
2021/12/18 15:38:33;;;;;;;30.53;19.33;;;;;;;0.06;96.23;97218.22;5903616;23;20175;-85
2021/12/18 15:40:58;;;;;;;27.40;17.37;;;;;;;0.00;96.45;97219.25;5925387;24;20190;-86
2021/12/18 15:43:27;;;;;;;23.13;14.93;;;;;;;0.00;96.37;97214.13;6045647;23;20184;-86
2021/12/18 15:45:53;;;;;;;27.87;16.30;;;;;;;0.03;96.11;97211.50;5948315;24;20215;-85
2021/12/18 15:48:18;;;;;;;23.77;15.37;;;;;;;0.00;96.67;97211.59;5948728;24;20227;-85
2021/12/18 15:50:44;;;;;;;26.37;16.10;;;;;;;0.00;96.09;97203.94;5925736;23;20171;-86
2021/12/18 15:53:13;;;;;;;26.67;16.67;;;;;;;-0.10;95.93;97205.88;5917124;23;20230;-85
2021/12/18 15:55:39;;;;;;;24.57;14.83;;;;;;;-0.07;97.09;97207.53;5951208;24;20195;-85
2021/12/18 15:58:04;;;;;;;26.20;16.13;;;;;;;-0.15;96.79;97210.28;5950159;24;20610;-85
2021/12/18 16:03:51;;;;;;;27.00;16.50;;;;;;;-0.15;97.28;97206.91;5951354;24;20213;-84
2021/12/18 16:06:17;;;;;;;26.97;15.77;;;;;;;-0.11;97.14;97218.69;5948619;24;20182;-82
2021/12/18 16:32:13;;;;;;;30.03;16.90;;;;;;;-0.08;98.43;97206.69;5875282;24;20204;-86
2021/12/18 16:41:24;;;;;;;;;;;;;;;;;;;;;
2021/12/18 16:52:07;;;;;;;;;;;;;;;;;;;;;
2021/12/18 16:55:10;;;;;;;35.17;18.87;;;;;;;-0.16;99.29;97195.84;5902993;24;20376;-86
2021/12/18 16:58:34;;;;;;;30.53;17.23;;;;;;;-0.15;98.81;97201.78;5831007;24;20174;-86
2021/12/18 17:08:18;;;;;;;33.27;18.43;;;;;;;-0.13;99.15;97184.69;5818440;24;20208;-88
2021/12/18 17:15:06;;;;;;;29.07;18.40;;;;;;;-0.13;99.07;97161.72;5829808;24;20241;-85
2021/12/18 17:18:30;;;;;;;38.03;19.70;;;;;;;-0.14;99.14;97165.16;5850733;24;20177;-88
2021/12/18 17:21:34;;;;;;;34.30;19.63;;;;;;;-0.12;98.87;97161.66;5868010;24;20236;-88
2021/12/18 17:28:20;;;;;;;34.97;19.60;;;;;;;-0.19;98.64;97179.75;5938790;23;20641;-86
2021/12/18 17:37:49;;;;;;;32.77;20.00;;;;;;;-0.19;99.13;97187.41;6014933;23;20177;-86
2021/12/18 17:41:06;;;;;;;36.33;21.47;;;;;;;-0.19;99.25;97187.41;6012182;23;20169;-87
2021/12/18 17:44:30;;;;;;;;;;;;;;;;;;;;;
2021/12/18 17:47:41;;;;;;;35.60;21.73;;;;;;;-0.24;99.70;97187.56;5930160;24;20460;-86
2021/12/18 17:50:40;;;;;;;41.10;23.23;;;;;;;-0.29;99.39;97190.22;5903297;24;20160;-87
2021/12/18 17:53:39;;;;;;;36.90;22.57;;;;;;;-0.26;100.00;97179.09;5876931;24;20197;-86
2021/12/18 17:56:53;;;;;;;46.47;29.97;;;;;;;-0.18;99.59;97182.25;5880421;24;20702;-86
2021/12/18 18:00:03;;;;;;;;;;;;;;;;;;;;;
2021/12/18 18:03:04;;;;;;;39.77;22.80;;;;;;;-0.22;99.32;97183.25;5900720;24;20592;-86
2021/12/18 18:09:30;;;;;;;;;;;;;;;;;;;;;
2021/12/18 18:11:59;;;;;;;35.57;20.83;;;;;;;-0.25;99.88;97180.78;5900131;24;20793;-87
2021/12/18 18:15:13;;;;;;;38.53;22.13;;;;;;;-0.19;99.46;97178.03;5855372;24;20738;-87
2021/12/18 18:18:11;;;;;;;;;;;;;;;;;;;;;
2021/12/18 18:21:25;;;;;;;39.23;22.40;;;;;;;-0.17;100.00;97181.41;5887946;24;20279;-87
2021/12/18 18:24:46;;;;;;;37.97;22.33;;;;;;;-0.12;99.83;97188.94;5851557;24;20176;-86
2021/12/18 18:34:50;;;;;;;42.13;22.80;;;;;;;-0.28;100.00;97196.16;5871834;24;20696;-86
2021/12/18 18:37:16;;;;;;;43.90;23.13;;;;;;;-0.20;100.00;97201.06;5872648;24;20244;-83
2021/12/18 18:39:41;;;;;;;44.63;23.67;;;;;;;-0.26;100.00;97193.59;5816860;24;20210;-84
2021/12/18 18:42:57;;;;;;;;;;;;;;;;;;;;;
2021/12/18 18:45:30;;;;;;;48.77;23.37;;;;;;;-0.19;100.00;97197.63;5842534;24;20285;-83
2021/12/18 18:54:43;;;;;;;54.97;25.13;;;;;;;-0.09;100.00;97197.34;5904157;24;20172;-85
2021/12/18 18:58:24;;;;;;;74.00;26.17;;;;;;;-0.12;100.00;97194.03;5899237;24;20221;-84
2021/12/18 19:00:56;;;;;;;58.53;26.33;;;;;;;-0.10;100.00;97187.16;5885066;24;20232;-85
2021/12/18 19:03:30;;;;;;;73.27;28.07;;;;;;;-0.12;100.00;97189.75;5936046;24;20196;-85
2021/12/18 19:06:07;;;;;;;53.77;28.50;;;;;;;-0.10;100.00;97197.38;5892560;23;20332;-86
2021/12/18 19:08:35;;;;;;;56.27;25.30;;;;;;;-0.04;100.00;97200.59;5872066;24;20172;-85
2021/12/18 19:11:29;;;;;;;56.97;26.37;;;;;;;-0.04;100.00;97200.59;5870537;23;20559;-83
2021/12/18 19:14:02;;;;;;;57.50;26.93;;;;;;;-0.08;100.00;97191.38;5870003;24;20161;-83
2021/12/18 19:16:38;;;;;;;54.47;27.17;;;;;;;-0.06;100.00;97189.59;5892778;24;20161;-84
2021/12/18 19:19:35;;;;;;;71.87;27.60;;;;;;;-0.06;100.00;97194.72;5870048;24;20164;-84
2021/12/18 19:22:13;;;;;;;68.03;24.77;;;;;;;0.08;100.00;97191.75;5892065;24;20533;-85
2021/12/18 19:25:02;;;;;;;46.10;23.80;;;;;;;0.06;100.00;97188.41;5891971;24;20193;-85
2021/12/18 19:31:22;;;;;;;72.03;26.17;;;;;;;0.02;100.00;97194.50;6001088;23;20184;-85
2021/12/18 19:33:49;;;;;;;55.53;27.77;;;;;;;0.09;100.00;97192.59;6013241;23;20154;-85
2021/12/18 19:36:15;;;;;;;61.13;29.67;;;;;;;0.05;100.00;97191.00;5989219;23;20271;-83
2021/12/18 19:38:42;;;;;;;165.53;31.13;;;;;;;0.03;100.00;97187.66;5987219;23;20194;-86
2021/12/18 19:41:08;;;;;;;160.00;28.67;;;;;;;0.05;100.00;97188.47;5985874;23;20572;-84
2021/12/18 19:43:33;;;;;;;78.30;27.47;;;;;;;0.02;100.00;97189.38;5987734;23;20200;-84
2021/12/18 19:46:00;;;;;;;99.07;28.87;;;;;;;0.05;100.00;97175.69;5988435;23;20182;-84
2021/12/18 19:48:26;;;;;;;118.80;30.97;;;;;;;0.09;100.00;97172.16;5981442;23;20170;-85
2021/12/18 19:50:51;;;;;;;117.90;29.07;;;;;;;0.03;100.00;97157.03;6003117;23;20221;-85
2021/12/18 19:53:27;;;;;;;59.33;28.07;;;;;;;0.03;100.00;97162.13;6006207;23;20167;-85
2021/12/18 19:55:53;;;;;;;115.27;30.07;;;;;;;0.03;100.00;97154.47;6007102;23;20876;-85
2021/12/18 19:58:18;;;;;;;176.63;31.83;;;;;;;0.02;100.00;97153.63;6008369;23;20158;-84
2021/12/18 20:00:44;;;;;;;172.07;30.93;;;;;;;0.07;100.00;97159.44;6007506;23;20197;-84
2021/12/18 20:05:44;;;;;;;85.17;26.97;;;;;;;-0.02;100.00;97152.88;6007135;23;20209;-84
2021/12/18 20:08:10;;;;;;;117.23;30.37;;;;;;;-0.04;100.00;97148.69;5937770;23;20203;-84
2021/12/18 20:10:35;;;;;;;123.13;31.63;;;;;;;-0.05;100.00;97149.56;5948192;24;20167;-85
2021/12/18 20:13:04;;;;;;;79.53;31.13;;;;;;;-0.14;100.00;97139.63;5947979;24;20203;-85
2021/12/18 20:15:32;;;;;;;53.80;28.27;;;;;;;-0.07;100.00;97138.56;5948388;24;20634;-85
2021/12/18 20:17:58;;;;;;;51.67;27.70;;;;;;;-0.10;100.00;97138.63;5947981;24;20167;-83
2021/12/18 20:20:28;;;;;;;63.63;26.83;;;;;;;-0.15;100.00;97133.69;5947467;24;20155;-84
2021/12/18 20:22:55;;;;;;;67.43;27.37;;;;;;;-0.20;100.00;97140.63;5946733;24;20156;-83
2021/12/18 20:25:21;;;;;;;67.43;27.27;;;;;;;-0.22;100.00;97146.66;5947300;24;20233;-84
2021/12/18 20:27:47;;;;;;;66.97;26.70;;;;;;;-0.23;100.00;97142.44;5948690;24;20156;-84
2021/12/18 20:30:14;;;;;;;57.90;27.80;;;;;;;-0.18;100.00;97136.31;5947269;24;20171;-85
2021/12/18 20:32:40;;;;;;;74.87;28.03;;;;;;;-0.28;100.00;97132.34;5946818;24;20888;-84
2021/12/18 20:35:06;;;;;;;81.30;26.93;;;;;;;-0.22;100.00;97136.44;5948900;24;20210;-84
2021/12/18 20:37:32;;;;;;;75.07;25.43;;;;;;;-0.18;100.00;97132.91;5947790;24;20205;-85
2021/12/18 20:39:57;;;;;;;60.67;25.50;;;;;;;-0.21;100.00;97143.22;5946370;24;20151;-87
2021/12/18 20:42:23;;;;;;;78.20;26.50;;;;;;;-0.29;100.00;97128.94;5947950;24;20278;-82
2021/12/18 20:44:48;;;;;;;71.10;26.10;;;;;;;-0.40;100.00;97132.69;5948546;24;20635;-85
2021/12/18 20:47:14;;;;;;;66.87;26.83;;;;;;;-0.38;100.00;97136.88;5948640;24;20691;-83
2021/12/18 20:49:40;;;;;;;92.27;26.37;;;;;;;-0.43;100.00;97143.81;5946791;24;20162;-85
2021/12/18 20:52:06;;;;;;;58.43;25.67;;;;;;;-0.36;100.00;97152.97;5924254;24;20198;-85
2021/12/18 20:54:31;;;;;;;81.60;26.27;;;;;;;-0.41;100.00;97144.63;5924933;24;20191;-84
2021/12/18 20:56:57;;;;;;;79.30;26.37;;;;;;;-0.44;100.00;97159.16;5947622;24;20234;-86
2021/12/18 20:59:22;;;;;;;224.07;36.43;;;;;;;-0.48;100.00;97158.41;5948602;24;20167;-84
2021/12/18 21:01:48;;;;;;;153.00;28.87;;;;;;;-0.43;100.00;97151.50;5970504;23;20195;-84
2021/12/18 21:04:16;;;;;;;57.97;24.50;;;;;;;-0.31;100.00;97150.31;5923774;24;20193;-84
2021/12/18 21:06:43;;;;;;;76.73;26.50;;;;;;;-0.37;100.00;97158.97;5923985;24;20192;-85
2021/12/18 21:09:12;;;;;;;89.63;26.60;;;;;;;-0.38;100.00;97151.34;5945922;24;20167;-86
2021/12/18 21:11:41;;;;;;;99.77;25.97;;;;;;;-0.37;100.00;97158.97;5946540;24;20164;-85
2021/12/18 21:14:07;;;;;;;66.10;25.93;;;;;;;-0.34;100.00;97147.84;5946903;24;20786;-86
2021/12/18 21:16:36;;;;;;;155.13;31.70;;;;;;;-0.42;100.00;97157.44;5946897;24;20179;-83
2021/12/18 21:19:04;;;;;;;49.27;24.03;;;;;;;-0.30;100.00;97170.69;5947273;24;20178;-84
2021/12/18 21:21:30;;;;;;;211.10;30.57;;;;;;;-0.36;100.00;97164.91;5946162;24;20203;-85
2021/12/18 21:23:55;;;;;;;73.20;24.53;;;;;;;-0.36;100.00;97157.25;5946310;24;20191;-85
2021/12/18 21:26:23;;;;;;;107.07;27.37;;;;;;;-0.39;100.00;97155.63;5945808;24;20190;-84
2021/12/18 21:28:50;;;;;;;99.70;28.43;;;;;;;-0.40;100.00;97161.59;5945668;24;20168;-86
2021/12/18 21:31:18;;;;;;;81.27;27.87;;;;;;;-0.38;100.00;97159.84;5945825;24;20164;-84
2021/12/18 21:33:48;;;;;;;66.53;25.47;;;;;;;-0.34;100.00;97168.28;5945930;24;20168;-86
2021/12/18 21:38:57;;;;;;;63.17;25.80;;;;;;;-0.33;100.00;97170.78;5946048;24;20558;-85
2021/12/18 21:41:23;;;;;;;83.03;27.77;;;;;;;-0.34;100.00;97164.00;5945613;24;20196;-84
2021/12/18 21:43:50;;;;;;;81.63;27.27;;;;;;;-0.40;100.00;97161.59;5945710;24;20910;-84
2021/12/18 21:46:16;;;;;;;121.80;29.17;;;;;;;-0.42;100.00;97165.91;5945720;24;20589;-84
2021/12/18 21:48:43;;;;;;;122.93;30.80;;;;;;;-0.44;100.00;97159.16;5922567;24;20190;-84
2021/12/18 21:51:09;;;;;;;115.13;31.77;;;;;;;-0.42;100.00;97168.47;5945335;24;20160;-84
2021/12/18 21:53:35;;;;;;;104.73;30.60;;;;;;;-0.41;100.00;97166.75;5945530;24;20175;-84
2021/12/18 21:56:00;;;;;;;66.97;30.43;;;;;;;-0.42;100.00;97155.72;5922671;24;20183;-85
2021/12/18 21:58:25;;;;;;;97.03;31.13;;;;;;;-0.45;100.00;97150.66;5945962;24;20621;-85
2021/12/18 22:01:09;;;;;;;84.83;29.57;;;;;;;-0.38;100.00;97151.34;5946039;24;20228;-85
2021/12/18 22:03:35;;;;;;;103.60;30.00;;;;;;;-0.34;100.00;97164.00;5945326;24;20238;-83
2021/12/18 22:06:00;;;;;;;63.67;27.73;;;;;;;-0.31;100.00;97157.97;5947067;24;20214;-83